Amherst, Wisconsin
Current Conditions -  °F | °C
As of 11:55 AM on Tuesday 21 Oct 2014 (Local Time) from KSTE Reporting Station
Overcast Overcast  
Wind Chill:   Ceiling: 2200
Heat Index:   Visibility: 10mi
Dew Point:   Wind: 5mph
Humidity: 69%   Direction: 40°NE
Pressure: 30.26"   Gusts: NA
Location:  44.45°N, 89.28°W
Report Text: KSTE 211655Z AUTO 04004KT 10SM OVC022 06/01 A3026 RMK AO2 P0001 T00580006
Loading
Personal Weather Stations






























Interactive Weather Map
Tropical Storm Tracking
New forecast layout! Learn more

10-Day Weather Forecast

Advertisements
Track Severe Weather on mobile